sensor_id;sensor_type;location;lat;lon;timestamp;temperature;humidity
5520;DHT22;2782;52.362;10.012;2023-05-19T00:00:56;18.40;92.00
5520;DHT22;2782;52.362;10.012;2023-05-19T00:01:57;18.40;91.70
5520;DHT22;2782;52.362;10.012;2023-05-19T00:02:59;18.40;91.70
5520;DHT22;2782;52.362;10.012;2023-05-19T00:04:00;18.40;91.80
5520;DHT22;2782;52.362;10.012;2023-05-19T00:05:03;18.40;91.80
5520;DHT22;2782;52.362;10.012;2023-05-19T00:06:04;18.40;91.90
5520;DHT22;2782;52.362;10.012;2023-05-19T00:07:08;18.40;91.70
5520;DHT22;2782;52.362;10.012;2023-05-19T00:08:10;18.40;91.80
5520;DHT22;2782;52.362;10.012;2023-05-19T00:09:12;18.40;91.70
5520;DHT22;2782;52.362;10.012;2023-05-19T00:10:14;18.40;91.90
5520;DHT22;2782;52.362;10.012;2023-05-19T00:11:16;18.40;91.70
5520;DHT22;2782;52.362;10.012;2023-05-19T00:12:17;18.40;91.60
5520;DHT22;2782;52.362;10.012;2023-05-19T00:13:20;18.40;91.60
5520;DHT22;2782;52.362;10.012;2023-05-19T00:14:21;18.40;91.70
5520;DHT22;2782;52.362;10.012;2023-05-19T00:15:23;18.40;91.60
5520;DHT22;2782;52.362;10.012;2023-05-19T00:16:25;18.40;91.70
5520;DHT22;2782;52.362;10.012;2023-05-19T00:17:27;18.40;91.60
5520;DHT22;2782;52.362;10.012;2023-05-19T00:18:28;18.40;91.70
5520;DHT22;2782;52.362;10.012;2023-05-19T00:19:30;18.40;91.70
5520;DHT22;2782;52.362;10.012;2023-05-19T00:20:31;18.40;91.60
5520;DHT22;2782;52.362;10.012;2023-05-19T00:21:33;18.40;91.60
5520;DHT22;2782;52.362;10.012;2023-05-19T00:22:35;18.40;91.60
5520;DHT22;2782;52.362;10.012;2023-05-19T00:23:37;18.40;91.60
5520;DHT22;2782;52.362;10.012;2023-05-19T00:24:37;18.40;91.60
5520;DHT22;2782;52.362;10.012;2023-05-19T00:25:39;18.40;91.60
5520;DHT22;2782;52.362;10.012;2023-05-19T00:26:40;18.40;91.60
5520;DHT22;2782;52.362;10.012;2023-05-19T00:27:41;18.40;91.60
5520;DHT22;2782;52.362;10.012;2023-05-19T00:28:42;18.40;91.60
5520;DHT22;2782;52.362;10.012;2023-05-19T00:29:43;18.40;91.60
5520;DHT22;2782;52.362;10.012;2023-05-19T00:30:44;18.40;91.60
5520;DHT22;2782;52.362;10.012;2023-05-19T00:31:46;18.40;91.60
5520;DHT22;2782;52.362;10.012;2023-05-19T00:32:47;18.40;91.70
5520;DHT22;2782;52.362;10.012;2023-05-19T00:33:48;18.40;91.70
5520;DHT22;2782;52.362;10.012;2023-05-19T00:34:49;18.40;91.60
5520;DHT22;2782;52.362;10.012;2023-05-19T00:35:51;18.40;91.70
5520;DHT22;2782;52.362;10.012;2023-05-19T00:36:51;18.40;91.60
5520;DHT22;2782;52.362;10.012;2023-05-19T00:37:54;18.40;91.60
5520;DHT22;2782;52.362;10.012;2023-05-19T00:38:55;18.40;91.60
5520;DHT22;2782;52.362;10.012;2023-05-19T00:39:56;18.40;91.60
5520;DHT22;2782;52.362;10.012;2023-05-19T00:40:59;18.40;91.60
5520;DHT22;2782;52.362;10.012;2023-05-19T00:42:01;18.40;91.60
5520;DHT22;2782;52.362;10.012;2023-05-19T00:43:02;18.40;91.60
5520;DHT22;2782;52.362;10.012;2023-05-19T00:44:05;18.40;91.50
5520;DHT22;2782;52.362;10.012;2023-05-19T00:45:07;18.40;91.60
5520;DHT22;2782;52.362;10.012;2023-05-19T00:46:08;18.40;91.70
5520;DHT22;2782;52.362;10.012;2023-05-19T00:47:10;18.40;91.60
5520;DHT22;2782;52.362;10.012;2023-05-19T00:48:11;18.40;91.50
5520;DHT22;2782;52.362;10.012;2023-05-19T00:49:12;18.40;91.60
5520;DHT22;2782;52.362;10.012;2023-05-19T00:50:14;18.40;91.60
5520;DHT22;2782;52.362;10.012;2023-05-19T00:51:15;18.40;91.50
5520;DHT22;2782;52.362;10.012;2023-05-19T00:52:17;18.40;91.60
5520;DHT22;2782;52.362;10.012;2023-05-19T00:53:20;18.40;91.40
5520;DHT22;2782;52.362;10.012;2023-05-19T00:54:23;18.40;91.50
5520;DHT22;2782;52.362;10.012;2023-05-19T00:55:27;18.40;91.50
5520;DHT22;2782;52.362;10.012;2023-05-19T00:56:30;18.40;91.40
5520;DHT22;2782;52.362;10.012;2023-05-19T00:57:31;18.40;91.50
5520;DHT22;2782;52.362;10.012;2023-05-19T00:58:33;18.40;91.40
5520;DHT22;2782;52.362;10.012;2023-05-19T00:59:35;18.40;91.40
5520;DHT22;2782;52.362;10.012;2023-05-19T01:00:37;18.40;91.40
5520;DHT22;2782;52.362;10.012;2023-05-19T01:01:40;18.40;91.50
5520;DHT22;2782;52.362;10.012;2023-05-19T01:02:42;18.40;91.40
5520;DHT22;2782;52.362;10.012;2023-05-19T01:03:42;18.40;91.50
5520;DHT22;2782;52.362;10.012;2023-05-19T01:04:45;18.40;91.40
5520;DHT22;2782;52.362;10.012;2023-05-19T01:05:46;18.40;91.40
5520;DHT22;2782;52.362;10.012;2023-05-19T01:06:49;18.40;91.40
5520;DHT22;2782;52.362;10.012;2023-05-19T01:07:54;18.40;91.40
5520;DHT22;2782;52.362;10.012;2023-05-19T01:08:57;18.40;91.40
5520;DHT22;2782;52.362;10.012;2023-05-19T01:09:58;18.40;91.40
5520;DHT22;2782;52.362;10.012;2023-05-19T01:10:59;18.40;91.40
5520;DHT22;2782;52.362;10.012;2023-05-19T01:12:00;18.40;91.40
5520;DHT22;2782;52.362;10.012;2023-05-19T01:13:03;18.40;91.30
5520;DHT22;2782;52.362;10.012;2023-05-19T01:14:04;18.40;91.40
5520;DHT22;2782;52.362;10.012;2023-05-19T01:15:07;18.40;91.30
5520;DHT22;2782;52.362;10.012;2023-05-19T01:16:12;18.40;91.30
5520;DHT22;2782;52.362;10.012;2023-05-19T01:17:29;18.40;91.40
5520;DHT22;2782;52.362;10.012;2023-05-19T01:18:42;18.40;91.40
5520;DHT22;2782;52.362;10.012;2023-05-19T01:19:52;18.40;91.30
5520;DHT22;2782;52.362;10.012;2023-05-19T01:21:05;18.40;91.40
5520;DHT22;2782;52.362;10.012;2023-05-19T01:22:31;18.30;91.20
5520;DHT22;2782;52.362;10.012;2023-05-19T01:23:43;18.40;91.30
5520;DHT22;2782;52.362;10.012;2023-05-19T01:25:11;18.30;91.20
5520;DHT22;2782;52.362;10.012;2023-05-19T01:26:34;18.40;91.20
5520;DHT22;2782;52.362;10.012;2023-05-19T01:27:59;18.30;91.20
5520;DHT22;2782;52.362;10.012;2023-05-19T01:30:33;18.30;91.20
5520;DHT22;2782;52.362;10.012;2023-05-19T01:31:37;18.30;91.20
5520;DHT22;2782;52.362;10.012;2023-05-19T01:32:41;18.30;91.20
5520;DHT22;2782;52.362;10.012;2023-05-19T01:33:42;18.30;91.30
5520;DHT22;2782;52.362;10.012;2023-05-19T01:34:45;18.30;91.30
5520;DHT22;2782;52.362;10.012;2023-05-19T01:35:49;18.30;91.30
5520;DHT22;2782;52.362;10.012;2023-05-19T01:36:52;18.30;91.20
5520;DHT22;2782;52.362;10.012;2023-05-19T01:37:56;18.30;91.20
5520;DHT22;2782;52.362;10.012;2023-05-19T01:38:58;18.30;91.20
5520;DHT22;2782;52.362;10.012;2023-05-19T01:39:59;18.30;91.20
5520;DHT22;2782;52.362;10.012;2023-05-19T01:41:02;18.30;91.10
5520;DHT22;2782;52.362;10.012;2023-05-19T01:42:03;18.30;91.10
5520;DHT22;2782;52.362;10.012;2023-05-19T01:43:09;18.30;91.00
5520;DHT22;2782;52.362;10.012;2023-05-19T01:44:10;18.30;91.10
5520;DHT22;2782;52.362;10.012;2023-05-19T01:45:12;18.30;91.10
5520;DHT22;2782;52.362;10.012;2023-05-19T01:46:14;18.30;91.00
5520;DHT22;2782;52.362;10.012;2023-05-19T01:47:17;18.30;91.00
5520;DHT22;2782;52.362;10.012;2023-05-19T01:48:18;18.30;91.00
5520;DHT22;2782;52.362;10.012;2023-05-19T01:49:20;18.30;91.00
5520;DHT22;2782;52.362;10.012;2023-05-19T01:50:21;18.30;90.90
5520;DHT22;2782;52.362;10.012;2023-05-19T01:51:23;18.30;90.90
5520;DHT22;2782;52.362;10.012;2023-05-19T01:52:23;18.30;90.90
5520;DHT22;2782;52.362;10.012;2023-05-19T01:53:25;18.30;91.00
5520;DHT22;2782;52.362;10.012;2023-05-19T01:54:26;18.30;90.90
5520;DHT22;2782;52.362;10.012;2023-05-19T01:55:28;18.30;90.90
5520;DHT22;2782;52.362;10.012;2023-05-19T01:56:34;18.30;90.90
5520;DHT22;2782;52.362;10.012;2023-05-19T01:57:46;18.30;90.80
5520;DHT22;2782;52.362;10.012;2023-05-19T01:58:52;18.30;90.80
5520;DHT22;2782;52.362;10.012;2023-05-19T02:00:03;18.30;90.80
5520;DHT22;2782;52.362;10.012;2023-05-19T02:01:12;18.30;90.80
5520;DHT22;2782;52.362;10.012;2023-05-19T02:05:22;18.30;90.80
5520;DHT22;2782;52.362;10.012;2023-05-19T02:06:38;18.30;90.80
5520;DHT22;2782;52.362;10.012;2023-05-19T02:07:43;18.30;90.80
5520;DHT22;2782;52.362;10.012;2023-05-19T02:08:53;18.30;90.90
5520;DHT22;2782;52.362;10.012;2023-05-19T02:10:03;18.30;90.80
5520;DHT22;2782;52.362;10.012;2023-05-19T02:11:09;18.30;90.90
5520;DHT22;2782;52.362;10.012;2023-05-19T02:12:16;18.30;90.80
5520;DHT22;2782;52.362;10.012;2023-05-19T02:13:20;18.30;90.80
5520;DHT22;2782;52.362;10.012;2023-05-19T02:14:30;18.30;90.80
5520;DHT22;2782;52.362;10.012;2023-05-19T02:15:38;18.30;90.80
5520;DHT22;2782;52.362;10.012;2023-05-19T02:16:43;18.30;90.80
5520;DHT22;2782;52.362;10.012;2023-05-19T02:17:46;18.30;90.70
5520;DHT22;2782;52.362;10.012;2023-05-19T02:18:47;18.30;90.70
5520;DHT22;2782;52.362;10.012;2023-05-19T02:19:53;18.20;90.70
5520;DHT22;2782;52.362;10.012;2023-05-19T02:20:55;18.20;90.70
5520;DHT22;2782;52.362;10.012;2023-05-19T02:21:56;18.30;90.70
5520;DHT22;2782;52.362;10.012;2023-05-19T02:22:57;18.30;90.60
5520;DHT22;2782;52.362;10.012;2023-05-19T02:23:59;18.30;90.60
5520;DHT22;2782;52.362;10.012;2023-05-19T02:24:59;18.30;90.60
5520;DHT22;2782;52.362;10.012;2023-05-19T02:26:01;18.30;90.50
5520;DHT22;2782;52.362;10.012;2023-05-19T02:27:02;18.30;90.50
5520;DHT22;2782;52.362;10.012;2023-05-19T02:28:04;18.30;90.50
5520;DHT22;2782;52.362;10.012;2023-05-19T02:29:06;18.30;90.40
5520;DHT22;2782;52.362;10.012;2023-05-19T02:30:08;18.30;90.40
5520;DHT22;2782;52.362;10.012;2023-05-19T02:31:09;18.30;90.40
5520;DHT22;2782;52.362;10.012;2023-05-19T02:32:11;18.30;90.30
5520;DHT22;2782;52.362;10.012;2023-05-19T02:33:11;18.30;90.40
5520;DHT22;2782;52.362;10.012;2023-05-19T02:34:13;18.30;90.40
5520;DHT22;2782;52.362;10.012;2023-05-19T02:35:14;18.30;90.30
5520;DHT22;2782;52.362;10.012;2023-05-19T02:36:17;18.30;90.30
5520;DHT22;2782;52.362;10.012;2023-05-19T02:37:18;18.30;90.30
5520;DHT22;2782;52.362;10.012;2023-05-19T02:38:23;18.30;90.30
5520;DHT22;2782;52.362;10.012;2023-05-19T02:39:23;18.30;90.30
5520;DHT22;2782;52.362;10.012;2023-05-19T02:40:25;18.30;90.30
5520;DHT22;2782;52.362;10.012;2023-05-19T02:41:26;18.30;90.20
5520;DHT22;2782;52.362;10.012;2023-05-19T02:42:28;18.30;90.20
5520;DHT22;2782;52.362;10.012;2023-05-19T02:43:28;18.30;90.20
5520;DHT22;2782;52.362;10.012;2023-05-19T02:44:30;18.30;90.20
5520;DHT22;2782;52.362;10.012;2023-05-19T02:45:31;18.30;90.20
5520;DHT22;2782;52.362;10.012;2023-05-19T02:46:33;18.30;90.20
5520;DHT22;2782;52.362;10.012;2023-05-19T02:47:33;18.30;90.20
5520;DHT22;2782;52.362;10.012;2023-05-19T02:48:35;18.30;90.20
5520;DHT22;2782;52.362;10.012;2023-05-19T02:49:35;18.20;90.10
5520;DHT22;2782;52.362;10.012;2023-05-19T02:50:37;18.30;90.20
5520;DHT22;2782;52.362;10.012;2023-05-19T02:51:40;18.30;90.50
5520;DHT22;2782;52.362;10.012;2023-05-19T02:52:41;18.30;90.10
5520;DHT22;2782;52.362;10.012;2023-05-19T02:53:42;18.30;90.10
5520;DHT22;2782;52.362;10.012;2023-05-19T02:54:43;18.30;90.10
5520;DHT22;2782;52.362;10.012;2023-05-19T02:55:44;18.20;90.10
5520;DHT22;2782;52.362;10.012;2023-05-19T02:56:46;18.30;90.10
5520;DHT22;2782;52.362;10.012;2023-05-19T02:57:47;18.30;90.10
5520;DHT22;2782;52.362;10.012;2023-05-19T02:58:48;18.30;90.10
5520;DHT22;2782;52.362;10.012;2023-05-19T02:59:49;18.30;90.10
5520;DHT22;2782;52.362;10.012;2023-05-19T03:00:50;18.30;90.00
5520;DHT22;2782;52.362;10.012;2023-05-19T03:01:54;18.30;90.10
5520;DHT22;2782;52.362;10.012;2023-05-19T03:02:56;18.30;90.00
5520;DHT22;2782;52.362;10.012;2023-05-19T03:04:01;18.30;90.00
5520;DHT22;2782;52.362;10.012;2023-05-19T03:05:04;18.20;90.00
5520;DHT22;2782;52.362;10.012;2023-05-19T03:06:05;18.30;90.00
5520;DHT22;2782;52.362;10.012;2023-05-19T03:07:09;18.20;90.00
5520;DHT22;2782;52.362;10.012;2023-05-19T03:08:10;18.30;90.00
5520;DHT22;2782;52.362;10.012;2023-05-19T03:09:11;18.20;90.30
5520;DHT22;2782;52.362;10.012;2023-05-19T03:10:13;18.20;89.90
5520;DHT22;2782;52.362;10.012;2023-05-19T03:11:14;18.30;90.00
5520;DHT22;2782;52.362;10.012;2023-05-19T03:12:15;18.20;89.80
5520;DHT22;2782;52.362;10.012;2023-05-19T03:13:16;18.20;89.80
5520;DHT22;2782;52.362;10.012;2023-05-19T03:14:17;18.30;89.90
5520;DHT22;2782;52.362;10.012;2023-05-19T03:15:23;18.20;89.70
5520;DHT22;2782;52.362;10.012;2023-05-19T03:16:23;18.30;89.80
5520;DHT22;2782;52.362;10.012;2023-05-19T03:17:25;18.20;89.70
5520;DHT22;2782;52.362;10.012;2023-05-19T03:18:27;18.20;89.70
5520;DHT22;2782;52.362;10.012;2023-05-19T03:19:29;18.20;89.70
5520;DHT22;2782;52.362;10.012;2023-05-19T03:20:31;18.20;89.70
5520;DHT22;2782;52.362;10.012;2023-05-19T03:21:33;18.20;89.60
5520;DHT22;2782;52.362;10.012;2023-05-19T03:22:35;18.20;89.60
5520;DHT22;2782;52.362;10.012;2023-05-19T03:23:37;18.20;89.40
5520;DHT22;2782;52.362;10.012;2023-05-19T03:24:37;18.20;89.50
5520;DHT22;2782;52.362;10.012;2023-05-19T03:25:39;18.20;89.50
5520;DHT22;2782;52.362;10.012;2023-05-19T03:26:39;18.20;89.50
5520;DHT22;2782;52.362;10.012;2023-05-19T03:27:41;18.20;89.40
5520;DHT22;2782;52.362;10.012;2023-05-19T03:28:42;18.20;89.40
5520;DHT22;2782;52.362;10.012;2023-05-19T03:29:43;18.20;89.30
5520;DHT22;2782;52.362;10.012;2023-05-19T03:30:44;18.20;89.30
5520;DHT22;2782;52.362;10.012;2023-05-19T03:31:46;18.20;89.20
5520;DHT22;2782;52.362;10.012;2023-05-19T03:32:46;18.20;89.20
5520;DHT22;2782;52.362;10.012;2023-05-19T03:33:48;18.20;89.20
5520;DHT22;2782;52.362;10.012;2023-05-19T03:34:48;18.20;89.20
5520;DHT22;2782;52.362;10.012;2023-05-19T03:35:50;18.20;89.30
5520;DHT22;2782;52.362;10.012;2023-05-19T03:36:52;18.20;89.10
5520;DHT22;2782;52.362;10.012;2023-05-19T03:37:55;18.20;89.10
5520;DHT22;2782;52.362;10.012;2023-05-19T03:38:55;18.20;89.20
5520;DHT22;2782;52.362;10.012;2023-05-19T03:39:57;18.20;89.10
5520;DHT22;2782;52.362;10.012;2023-05-19T03:40:58;18.20;89.10
5520;DHT22;2782;52.362;10.012;2023-05-19T03:41:59;18.20;89.10
5520;DHT22;2782;52.362;10.012;2023-05-19T03:43:00;18.20;89.10
5520;DHT22;2782;52.362;10.012;2023-05-19T03:44:01;18.20;89.10
5520;DHT22;2782;52.362;10.012;2023-05-19T03:45:03;18.20;89.10
5520;DHT22;2782;52.362;10.012;2023-05-19T03:46:05;18.20;89.00
5520;DHT22;2782;52.362;10.012;2023-05-19T03:47:06;18.20;89.00
5520;DHT22;2782;52.362;10.012;2023-05-19T03:48:07;18.20;89.10
5520;DHT22;2782;52.362;10.012;2023-05-19T03:49:08;18.20;89.10
5520;DHT22;2782;52.362;10.012;2023-05-19T03:50:13;18.20;89.10
5520;DHT22;2782;52.362;10.012;2023-05-19T03:51:13;18.20;89.10
5520;DHT22;2782;52.362;10.012;2023-05-19T03:52:16;18.20;89.10
5520;DHT22;2782;52.362;10.012;2023-05-19T03:53:18;18.20;89.00
5520;DHT22;2782;52.362;10.012;2023-05-19T03:54:19;18.20;89.00
5520;DHT22;2782;52.362;10.012;2023-05-19T03:55:21;18.20;89.10
5520;DHT22;2782;52.362;10.012;2023-05-19T03:56:23;18.20;89.00
5520;DHT22;2782;52.362;10.012;2023-05-19T03:57:26;18.20;89.00
5520;DHT22;2782;52.362;10.012;2023-05-19T03:58:29;18.20;89.00
5520;DHT22;2782;52.362;10.012;2023-05-19T03:59:29;18.20;89.10
5520;DHT22;2782;52.362;10.012;2023-05-19T04:00:32;18.20;89.70
5520;DHT22;2782;52.362;10.012;2023-05-19T04:01:33;18.20;89.00
5520;DHT22;2782;52.362;10.012;2023-05-19T04:02:34;18.20;88.90
5520;DHT22;2782;52.362;10.012;2023-05-19T04:03:35;18.20;88.90
5520;DHT22;2782;52.362;10.012;2023-05-19T04:04:36;18.20;88.90
5520;DHT22;2782;52.362;10.012;2023-05-19T04:05:37;18.20;88.90
5520;DHT22;2782;52.362;10.012;2023-05-19T04:06:39;18.20;88.90
5520;DHT22;2782;52.362;10.012;2023-05-19T04:07:39;18.20;88.80
5520;DHT22;2782;52.362;10.012;2023-05-19T04:08:43;18.20;88.80
5520;DHT22;2782;52.362;10.012;2023-05-19T04:09:44;18.20;88.80
5520;DHT22;2782;52.362;10.012;2023-05-19T04:10:46;18.20;88.80
5520;DHT22;2782;52.362;10.012;2023-05-19T04:11:46;18.20;88.70
5520;DHT22;2782;52.362;10.012;2023-05-19T04:12:48;18.20;88.70
5520;DHT22;2782;52.362;10.012;2023-05-19T04:13:48;18.20;88.70
5520;DHT22;2782;52.362;10.012;2023-05-19T04:14:50;18.20;88.60
5520;DHT22;2782;52.362;10.012;2023-05-19T04:15:51;18.20;88.60
5520;DHT22;2782;52.362;10.012;2023-05-19T04:16:52;18.20;88.50
5520;DHT22;2782;52.362;10.012;2023-05-19T04:17:54;18.20;88.50
5520;DHT22;2782;52.362;10.012;2023-05-19T04:18:55;18.20;88.50
5520;DHT22;2782;52.362;10.012;2023-05-19T04:19:56;18.20;88.30
5520;DHT22;2782;52.362;10.012;2023-05-19T04:20:58;18.20;88.40
5520;DHT22;2782;52.362;10.012;2023-05-19T04:21:58;18.20;88.30
5520;DHT22;2782;52.362;10.012;2023-05-19T04:23:00;18.20;88.30
5520;DHT22;2782;52.362;10.012;2023-05-19T04:24:02;18.20;88.20
5520;DHT22;2782;52.362;10.012;2023-05-19T04:25:06;18.20;88.00
5520;DHT22;2782;52.362;10.012;2023-05-19T04:26:08;18.20;88.10
5520;DHT22;2782;52.362;10.012;2023-05-19T04:27:11;18.20;88.00
5520;DHT22;2782;52.362;10.012;2023-05-19T04:28:12;18.20;88.00
5520;DHT22;2782;52.362;10.012;2023-05-19T04:29:14;18.20;88.00
5520;DHT22;2782;52.362;10.012;2023-05-19T04:30:17;18.20;88.00
5520;DHT22;2782;52.362;10.012;2023-05-19T04:31:21;18.20;88.00
5520;DHT22;2782;52.362;10.012;2023-05-19T04:32:22;18.20;88.00
5520;DHT22;2782;52.362;10.012;2023-05-19T04:33:23;18.20;88.00
5520;DHT22;2782;52.362;10.012;2023-05-19T04:34:24;18.20;88.00
5520;DHT22;2782;52.362;10.012;2023-05-19T04:35:27;18.20;88.00
5520;DHT22;2782;52.362;10.012;2023-05-19T04:36:28;18.20;88.00
5520;DHT22;2782;52.362;10.012;2023-05-19T04:37:30;18.20;88.00
5520;DHT22;2782;52.362;10.012;2023-05-19T04:38:31;18.20;87.90
5520;DHT22;2782;52.362;10.012;2023-05-19T04:39:34;18.20;87.80
5520;DHT22;2782;52.362;10.012;2023-05-19T04:40:38;18.20;87.80
5520;DHT22;2782;52.362;10.012;2023-05-19T04:41:41;18.20;87.70
5520;DHT22;2782;52.362;10.012;2023-05-19T04:42:44;18.20;87.80
5520;DHT22;2782;52.362;10.012;2023-05-19T04:43:45;18.20;87.80
5520;DHT22;2782;52.362;10.012;2023-05-19T04:44:48;18.20;87.80
5520;DHT22;2782;52.362;10.012;2023-05-19T04:45:51;18.20;87.80
5520;DHT22;2782;52.362;10.012;2023-05-19T04:46:51;18.20;87.80
5520;DHT22;2782;52.362;10.012;2023-05-19T04:47:53;18.20;87.80
5520;DHT22;2782;52.362;10.012;2023-05-19T04:48:57;18.20;87.80
5520;DHT22;2782;52.362;10.012;2023-05-19T04:50:00;18.20;87.80
5520;DHT22;2782;52.362;10.012;2023-05-19T04:51:01;18.20;87.80
5520;DHT22;2782;52.362;10.012;2023-05-19T04:52:03;18.20;87.80
5520;DHT22;2782;52.362;10.012;2023-05-19T04:53:06;18.20;87.80
5520;DHT22;2782;52.362;10.012;2023-05-19T04:54:07;18.20;87.80
5520;DHT22;2782;52.362;10.012;2023-05-19T04:55:10;18.20;87.80
5520;DHT22;2782;52.362;10.012;2023-05-19T04:56:12;18.20;87.80
5520;DHT22;2782;52.362;10.012;2023-05-19T04:57:14;18.20;87.70
5520;DHT22;2782;52.362;10.012;2023-05-19T04:58:15;18.20;87.70
5520;DHT22;2782;52.362;10.012;2023-05-19T04:59:16;18.20;87.70
5520;DHT22;2782;52.362;10.012;2023-05-19T05:00:19;18.20;87.80
5520;DHT22;2782;52.362;10.012;2023-05-19T05:01:20;18.20;87.70
5520;DHT22;2782;52.362;10.012;2023-05-19T05:02:25;18.20;87.70
5520;DHT22;2782;52.362;10.012;2023-05-19T05:03:27;18.20;87.70
5520;DHT22;2782;52.362;10.012;2023-05-19T05:04:30;18.10;86.40
5520;DHT22;2782;52.362;10.012;2023-05-19T05:05:32;18.10;86.00
5520;DHT22;2782;52.362;10.012;2023-05-19T05:06:32;18.10;85.30
5520;DHT22;2782;52.362;10.012;2023-05-19T05:07:34;18.10;85.10
5520;DHT22;2782;52.362;10.012;2023-05-19T05:08:34;18.10;84.40
5520;DHT22;2782;52.362;10.012;2023-05-19T05:09:39;18.10;83.20
5520;DHT22;2782;52.362;10.012;2023-05-19T05:10:41;18.20;83.20
5520;DHT22;2782;52.362;10.012;2023-05-19T05:11:43;18.20;84.70
5520;DHT22;2782;52.362;10.012;2023-05-19T05:12:44;18.20;84.80
5520;DHT22;2782;52.362;10.012;2023-05-19T05:13:47;18.20;85.40
5520;DHT22;2782;52.362;10.012;2023-05-19T05:14:48;18.20;85.80
5520;DHT22;2782;52.362;10.012;2023-05-19T05:15:50;18.20;86.40
5520;DHT22;2782;52.362;10.012;2023-05-19T05:16:51;18.20;87.70
5520;DHT22;2782;52.362;10.012;2023-05-19T05:17:56;18.20;88.30
5520;DHT22;2782;52.362;10.012;2023-05-19T05:18:57;18.20;88.80
5520;DHT22;2782;52.362;10.012;2023-05-19T05:19:59;18.20;89.30
5520;DHT22;2782;52.362;10.012;2023-05-19T05:21:01;18.20;89.30
5520;DHT22;2782;52.362;10.012;2023-05-19T05:22:03;18.20;89.40
5520;DHT22;2782;52.362;10.012;2023-05-19T05:23:06;18.20;89.60
5520;DHT22;2782;52.362;10.012;2023-05-19T05:24:10;18.30;89.80
5520;DHT22;2782;52.362;10.012;2023-05-19T05:25:12;18.30;90.00
5520;DHT22;2782;52.362;10.012;2023-05-19T05:26:19;18.20;90.00
5520;DHT22;2782;52.362;10.012;2023-05-19T05:27:22;18.30;90.50
5520;DHT22;2782;52.362;10.012;2023-05-19T05:28:24;18.30;91.10
5520;DHT22;2782;52.362;10.012;2023-05-19T05:29:24;18.30;91.70
5520;DHT22;2782;52.362;10.012;2023-05-19T05:30:26;18.30;91.30
5520;DHT22;2782;52.362;10.012;2023-05-19T05:31:27;18.30;91.70
5520;DHT22;2782;52.362;10.012;2023-05-19T05:32:28;18.30;91.60
5520;DHT22;2782;52.362;10.012;2023-05-19T05:33:29;18.30;92.60
5520;DHT22;2782;52.362;10.012;2023-05-19T05:34:31;18.30;93.20
5520;DHT22;2782;52.362;10.012;2023-05-19T05:35:31;18.30;93.30
5520;DHT22;2782;52.362;10.012;2023-05-19T05:36:33;18.30;93.30
5520;DHT22;2782;52.362;10.012;2023-05-19T05:37:34;18.40;93.60
5520;DHT22;2782;52.362;10.012;2023-05-19T05:38:36;18.40;93.80
5520;DHT22;2782;52.362;10.012;2023-05-19T05:39:36;18.40;93.90
5520;DHT22;2782;52.362;10.012;2023-05-19T05:40:38;18.40;94.20
5520;DHT22;2782;52.362;10.012;2023-05-19T05:41:40;18.40;94.40
5520;DHT22;2782;52.362;10.012;2023-05-19T05:42:42;18.40;94.60
5520;DHT22;2782;52.362;10.012;2023-05-19T05:43:45;18.40;94.80
5520;DHT22;2782;52.362;10.012;2023-05-19T05:44:47;18.40;94.80
5520;DHT22;2782;52.362;10.012;2023-05-19T05:45:48;18.40;94.90
5520;DHT22;2782;52.362;10.012;2023-05-19T05:46:50;18.40;95.00
5520;DHT22;2782;52.362;10.012;2023-05-19T05:47:51;18.40;95.00
5520;DHT22;2782;52.362;10.012;2023-05-19T05:48:53;18.40;95.10
5520;DHT22;2782;52.362;10.012;2023-05-19T05:49:54;18.40;95.20
5520;DHT22;2782;52.362;10.012;2023-05-19T05:50:58;18.40;95.30
5520;DHT22;2782;52.362;10.012;2023-05-19T05:51:59;18.50;95.30
5520;DHT22;2782;52.362;10.012;2023-05-19T05:53:02;18.50;95.40
5520;DHT22;2782;52.362;10.012;2023-05-19T05:54:05;18.50;95.40
5520;DHT22;2782;52.362;10.012;2023-05-19T05:55:08;18.50;95.40
5520;DHT22;2782;52.362;10.012;2023-05-19T05:56:10;18.50;95.50
5520;DHT22;2782;52.362;10.012;2023-05-19T05:57:14;18.50;95.30
5520;DHT22;2782;52.362;10.012;2023-05-19T05:58:14;18.50;95.00
5520;DHT22;2782;52.362;10.012;2023-05-19T05:59:16;18.50;94.70
5520;DHT22;2782;52.362;10.012;2023-05-19T06:00:18;18.50;94.20
5520;DHT22;2782;52.362;10.012;2023-05-19T06:01:20;18.50;93.80
5520;DHT22;2782;52.362;10.012;2023-05-19T06:02:23;18.60;93.70
5520;DHT22;2782;52.362;10.012;2023-05-19T06:03:23;18.60;93.60
5520;DHT22;2782;52.362;10.012;2023-05-19T06:04:26;18.60;93.20
5520;DHT22;2782;52.362;10.012;2023-05-19T06:05:26;18.60;93.00
5520;DHT22;2782;52.362;10.012;2023-05-19T06:06:29;18.60;92.90
5520;DHT22;2782;52.362;10.012;2023-05-19T06:07:30;18.60;92.70
5520;DHT22;2782;52.362;10.012;2023-05-19T06:08:32;18.60;92.30
5520;DHT22;2782;52.362;10.012;2023-05-19T06:09:33;18.60;90.20
5520;DHT22;2782;52.362;10.012;2023-05-19T06:10:34;18.60;90.90
5520;DHT22;2782;52.362;10.012;2023-05-19T06:11:35;18.60;91.70
5520;DHT22;2782;52.362;10.012;2023-05-19T06:12:38;18.60;91.80
5520;DHT22;2782;52.362;10.012;2023-05-19T06:13:40;18.60;91.30
5520;DHT22;2782;52.362;10.012;2023-05-19T06:14:41;18.60;91.10
5520;DHT22;2782;52.362;10.012;2023-05-19T06:15:42;18.60;91.40
5520;DHT22;2782;52.362;10.012;2023-05-19T06:16:43;18.60;90.80
5520;DHT22;2782;52.362;10.012;2023-05-19T06:17:44;18.60;90.70
5520;DHT22;2782;52.362;10.012;2023-05-19T06:18:45;18.60;87.30
5520;DHT22;2782;52.362;10.012;2023-05-19T06:19:46;18.60;87.90
5520;DHT22;2782;52.362;10.012;2023-05-19T06:20:48;18.60;87.80
5520;DHT22;2782;52.362;10.012;2023-05-19T06:21:48;18.60;85.30
5520;DHT22;2782;52.362;10.012;2023-05-19T06:22:50;18.60;87.70
5520;DHT22;2782;52.362;10.012;2023-05-19T06:23:51;18.70;87.90
5520;DHT22;2782;52.362;10.012;2023-05-19T06:24:52;18.60;88.90
5520;DHT22;2782;52.362;10.012;2023-05-19T06:25:53;18.70;88.30
5520;DHT22;2782;52.362;10.012;2023-05-19T06:26:55;18.70;87.40
5520;DHT22;2782;52.362;10.012;2023-05-19T06:27:57;18.70;87.80
5520;DHT22;2782;52.362;10.012;2023-05-19T06:28:58;18.70;88.20
5520;DHT22;2782;52.362;10.012;2023-05-19T06:29:59;18.70;88.60
5520;DHT22;2782;52.362;10.012;2023-05-19T06:31:00;18.70;87.00
5520;DHT22;2782;52.362;10.012;2023-05-19T06:32:01;18.70;81.10
5520;DHT22;2782;52.362;10.012;2023-05-19T06:33:03;18.70;79.60
5520;DHT22;2782;52.362;10.012;2023-05-19T06:34:04;18.60;79.40
5520;DHT22;2782;52.362;10.012;2023-05-19T06:35:06;18.60;79.80
5520;DHT22;2782;52.362;10.012;2023-05-19T06:36:07;18.60;80.50
5520;DHT22;2782;52.362;10.012;2023-05-19T06:37:09;18.60;81.20
5520;DHT22;2782;52.362;10.012;2023-05-19T06:38:10;18.70;82.50
5520;DHT22;2782;52.362;10.012;2023-05-19T06:39:12;18.60;81.70
5520;DHT22;2782;52.362;10.012;2023-05-19T06:40:12;18.60;82.10
5520;DHT22;2782;52.362;10.012;2023-05-19T06:41:14;18.60;83.50
5520;DHT22;2782;52.362;10.012;2023-05-19T06:42:15;18.60;84.00
5520;DHT22;2782;52.362;10.012;2023-05-19T06:43:18;18.70;84.00
5520;DHT22;2782;52.362;10.012;2023-05-19T06:44:19;18.70;83.80
5520;DHT22;2782;52.362;10.012;2023-05-19T06:45:20;18.70;83.60